createdAt,value
2022-08-22T00:03:15.778Z,1.50
2022-08-22T00:04:48.903Z,0.30
2022-08-22T00:10:09.535Z,3.60
2022-08-22T00:15:42.423Z,2.40
2022-08-22T00:20:51.595Z,2.00
2022-08-22T00:26:03.924Z,0.40
2022-08-22T00:31:20.932Z,0.60
2022-08-22T00:36:22.729Z,0.70
2022-08-22T00:41:30.358Z,1.20
2022-08-22T00:46:50.784Z,2.20
2022-08-22T00:52:02.595Z,10.60
2022-08-22T00:57:07.522Z,1.70
2022-08-22T01:02:22.099Z,2.70
2022-08-22T01:07:23.877Z,2.00
2022-08-22T01:12:46.854Z,4.20
2022-08-22T01:18:20.988Z,1.20
2022-08-22T01:23:42.323Z,2.60
2022-08-22T01:28:44.227Z,4.90
2022-08-22T01:34:06.665Z,2.90
2022-08-22T01:39:27.284Z,3.90
2022-08-22T01:44:35.410Z,2.80
2022-08-22T01:49:40.055Z,2.10
2022-08-22T01:54:47.717Z,2.00
2022-08-22T01:59:53.013Z,2.20
2022-08-22T02:05:21.125Z,3.40
2022-08-22T02:10:41.441Z,3.20
2022-08-22T02:16:12.706Z,2.20
2022-08-22T02:26:24.888Z,4.20
2022-08-22T02:31:42.925Z,2.50
2022-08-22T02:36:51.858Z,2.80
2022-08-22T02:41:53.561Z,29.40
2022-08-22T02:47:08.533Z,4.30
2022-08-22T02:52:13.993Z,5.40
2022-08-22T02:57:30.313Z,5.50
2022-08-22T03:02:38.467Z,4.40
2022-08-22T03:07:43.901Z,4.90
2022-08-22T03:12:48.748Z,4.80
2022-08-22T03:18:09.269Z,5.00
2022-08-22T03:23:17.498Z,5.10
2022-08-22T03:28:27.160Z,5.70
2022-08-22T03:33:30.780Z,7.50
2022-08-22T03:38:32.496Z,6.10
2022-08-22T03:43:37.200Z,5.20
2022-08-22T03:48:39.077Z,4.90
2022-08-22T03:53:59.597Z,6.00
2022-08-22T03:59:15.500Z,5.10
2022-08-22T04:04:25.907Z,4.80
2022-08-22T04:09:33.006Z,5.40
2022-08-22T04:14:36.218Z,5.80
2022-08-22T04:19:38.877Z,7.40
2022-08-22T04:25:07.125Z,5.70
2022-08-22T04:30:12.863Z,7.00
2022-08-22T04:35:32.868Z,7.90
2022-08-22T04:40:34.751Z,7.50
2022-08-22T04:45:52.300Z,8.20
2022-08-22T04:50:57.891Z,9.70
2022-08-22T04:56:12.131Z,8.80
2022-08-22T05:01:17.236Z,11.70
2022-08-22T05:06:21.153Z,8.80
2022-08-22T05:11:24.563Z,8.70
2022-08-22T05:16:32.960Z,10.90
2022-08-22T05:21:37.809Z,9.80
2022-08-22T05:26:43.071Z,13.10
2022-08-22T05:31:48.602Z,20.60
2022-08-22T05:37:00.203Z,10.30
2022-08-22T05:42:02.915Z,9.90
2022-08-22T05:47:24.579Z,9.90
2022-08-22T05:52:44.911Z,11.20
2022-08-22T05:57:48.766Z,11.40
2022-08-22T06:02:53.747Z,11.90
2022-08-22T06:08:01.015Z,12.50
2022-08-22T06:13:06.044Z,10.40
2022-08-22T06:18:16.802Z,9.20
2022-08-22T06:23:29.544Z,8.70
2022-08-22T06:28:38.895Z,9.60
2022-08-22T06:33:59.738Z,14.50
2022-08-22T06:39:05.785Z,14.50
2022-08-22T06:44:07.709Z,8.90
2022-08-22T06:49:09.731Z,9.80
2022-08-22T06:54:23.878Z,8.70
2022-08-22T06:59:30.278Z,8.80
2022-08-22T07:04:32.163Z,10.20
2022-08-22T07:09:35.280Z,9.60
2022-08-22T07:14:41.647Z,7.40
2022-08-22T07:19:48.500Z,7.30
2022-08-22T07:24:52.013Z,8.20
2022-08-22T07:29:56.783Z,6.90
2022-08-22T07:35:02.072Z,7.10
2022-08-22T07:40:22.542Z,7.30
2022-08-22T07:45:32.127Z,7.00
2022-08-22T07:50:36.526Z,6.30
2022-08-22T07:55:49.351Z,6.80
2022-08-22T08:00:51.937Z,6.40
2022-08-22T08:05:54.194Z,6.50
2022-08-22T08:10:57.351Z,5.90
2022-08-22T08:15:59.140Z,6.80
2022-08-22T08:21:04.091Z,8.30
2022-08-22T08:26:08.822Z,6.50
2022-08-22T08:31:26.297Z,10.30
2022-08-22T08:36:31.065Z,7.60
2022-08-22T08:41:47.254Z,8.30
2022-08-22T08:47:07.235Z,18.60
2022-08-22T08:52:21.838Z,7.30
2022-08-22T08:57:43.583Z,7.00
2022-08-22T09:02:48.951Z,6.90
2022-08-22T09:08:02.625Z,4.90
2022-08-22T09:13:11.425Z,4.30
2022-08-22T09:18:18.471Z,6.40
2022-08-22T09:23:53.875Z,5.70
2022-08-22T09:29:13.659Z,5.70
2022-08-22T09:34:30.332Z,9.30
2022-08-22T09:39:38.253Z,9.50
2022-08-22T09:44:50.274Z,7.80
2022-08-22T09:49:59.986Z,9.90
2022-08-22T09:55:07.955Z,11.00
2022-08-22T10:00:31.435Z,10.60
2022-08-22T10:05:43.606Z,17.80
2022-08-22T10:10:54.865Z,12.00
2022-08-22T10:16:07.296Z,12.10
2022-08-22T10:21:20.438Z,10.40
2022-08-22T10:26:25.659Z,12.00
2022-08-22T10:31:59.005Z,14.60
2022-08-22T10:37:34.006Z,15.70
2022-08-22T10:42:42.298Z,13.80
2022-08-22T10:52:49.619Z,13.80
2022-08-22T10:58:17.455Z,13.90
2022-08-22T11:03:26.665Z,14.70
2022-08-22T11:08:47.916Z,14.10
2022-08-22T11:14:04.775Z,18.20
2022-08-22T11:19:22.797Z,20.50
2022-08-22T11:24:30.018Z,16.50
2022-08-22T11:29:53.189Z,17.40
2022-08-22T11:34:54.865Z,16.40
2022-08-22T11:40:15.515Z,20.70
2022-08-22T11:50:22.245Z,17.50
2022-08-22T11:55:32.805Z,12.30
2022-08-22T12:00:35.075Z,17.80
2022-08-22T12:05:42.756Z,16.30
2022-08-22T12:10:54.445Z,15.20
2022-08-22T12:16:01.956Z,21.50
2022-08-22T12:21:10.458Z,19.60
2022-08-22T12:26:27.269Z,19.70
2022-08-22T12:31:49.201Z,19.10
2022-08-22T12:37:03.563Z,21.00
2022-08-22T12:42:23.184Z,21.20
2022-08-22T12:47:34.383Z,20.20
2022-08-22T12:57:50.378Z,19.90
2022-08-22T13:02:56.102Z,21.00
2022-08-22T13:08:04.393Z,20.00
2022-08-22T13:13:12.094Z,19.30
2022-08-22T13:18:29.923Z,18.40
2022-08-22T13:23:39.855Z,24.00
2022-08-22T13:29:24.498Z,18.30
2022-08-22T13:34:29.056Z,21.00
2022-08-22T13:39:35.430Z,19.50
2022-08-22T13:44:37.107Z,26.00
2022-08-22T13:50:01.253Z,20.70
2022-08-22T13:55:12.610Z,23.10
2022-08-22T14:00:28.577Z,21.10
2022-08-22T14:05:33.390Z,19.70
2022-08-22T14:10:37.903Z,24.10
2022-08-22T14:15:44.668Z,22.50
2022-08-22T14:20:47.614Z,25.60
2022-08-22T14:25:49.693Z,19.90
2022-08-22T14:30:59.455Z,23.80
2022-08-22T14:36:04.545Z,20.90
2022-08-22T14:41:21.327Z,21.90
2022-08-22T14:46:29.860Z,21.80
2022-08-22T14:51:31.878Z,19.00
2022-08-22T14:56:36.492Z,23.10
2022-08-22T15:02:10.918Z,20.50
2022-08-22T15:07:20.357Z,20.90
2022-08-22T15:12:22.224Z,13.90
2022-08-22T15:17:38.302Z,19.30
2022-08-22T15:22:45.448Z,21.20
2022-08-22T15:27:52.746Z,21.40
2022-08-22T15:33:07.700Z,18.30
2022-08-22T15:38:30.573Z,22.10
2022-08-22T15:43:36.375Z,20.00
2022-08-22T15:48:39.158Z,24.20
2022-08-22T15:53:45.718Z,26.10
2022-08-22T15:58:50.168Z,26.90
2022-08-22T16:04:12.491Z,22.60
2022-08-22T16:09:32.191Z,26.70
2022-08-22T16:14:33.824Z,27.20
2022-08-22T16:19:36.572Z,29.20
2022-08-22T16:24:58.556Z,26.90
2022-08-22T16:30:08.248Z,33.20
2022-08-22T16:35:09.948Z,29.00
2022-08-22T16:40:14.766Z,46.30
2022-08-22T16:45:32.049Z,37.30
2022-08-22T16:50:36.177Z,32.10
2022-08-22T16:55:39.591Z,39.30
2022-08-22T17:00:49.806Z,30.20
2022-08-22T17:05:51.640Z,36.90
2022-08-22T17:11:07.718Z,48.20
2022-08-22T17:16:17.632Z,91.00
2022-08-22T17:21:26.068Z,45.50
2022-08-22T17:26:40.116Z,38.40
2022-08-22T17:32:08.275Z,36.50
2022-08-22T17:37:16.885Z,35.20
2022-08-22T17:42:38.276Z,95.70
2022-08-22T17:48:09.135Z,37.90
2022-08-22T17:58:31.588Z,35.70
2022-08-22T18:03:38.735Z,36.10
2022-08-22T18:14:11.391Z,38.00
2022-08-22T18:19:20.234Z,40.50
2022-08-22T18:24:33.014Z,40.80
2022-08-22T18:30:07.639Z,43.20
2022-08-22T18:35:21.947Z,40.40
2022-08-22T18:40:30.725Z,44.20
2022-08-22T18:45:44.818Z,43.40
2022-08-22T18:50:47.799Z,38.90
2022-08-22T18:55:54.699Z,43.60
2022-08-22T19:01:05.046Z,47.70
2022-08-22T19:06:26.002Z,45.20
2022-08-22T19:11:36.411Z,43.00
2022-08-22T19:16:42.152Z,40.10
2022-08-22T19:22:21.875Z,36.40
2022-08-22T19:27:24.630Z,52.20
2022-08-22T19:32:44.448Z,36.10
2022-08-22T19:37:56.844Z,39.20
2022-08-22T19:42:58.875Z,33.50
2022-08-22T19:48:10.550Z,34.40
2022-08-22T19:53:27.376Z,38.10
2022-08-22T19:58:34.950Z,33.40
2022-08-22T20:03:44.676Z,33.70
2022-08-22T20:08:46.478Z,30.00
2022-08-22T20:13:48.721Z,32.20
2022-08-22T20:18:56.617Z,29.50
2022-08-22T20:24:05.338Z,26.90
2022-08-22T20:29:08.142Z,144.30
2022-08-22T20:34:12.033Z,37.30
2022-08-22T20:39:21.549Z,26.70
2022-08-22T20:44:27.266Z,26.20
2022-08-22T20:49:34.090Z,21.10
2022-08-22T20:54:38.092Z,25.00
2022-08-22T20:59:41.884Z,24.00
2022-08-22T21:05:04.362Z,25.60
2022-08-22T21:10:37.169Z,20.80
2022-08-22T21:15:43.296Z,21.30
2022-08-22T21:20:45.033Z,31.00
2022-08-22T21:25:52.855Z,22.40
2022-08-22T21:30:54.559Z,26.90
2022-08-22T21:35:57.730Z,20.60
2022-08-22T21:41:05.378Z,20.20
2022-08-22T21:46:07.698Z,20.20
2022-08-22T21:51:25.054Z,8.60
2022-08-22T21:56:28.578Z,41.30
2022-08-22T22:01:32.050Z,10.50
2022-08-22T22:06:34.034Z,8.40
2022-08-22T22:11:35.931Z,4.20
2022-08-22T22:16:38.507Z,4.10
2022-08-22T22:21:40.138Z,4.80
2022-08-22T22:26:41.902Z,4.60
2022-08-22T22:31:43.643Z,3.60
2022-08-22T22:36:45.421Z,3.80
2022-08-22T22:41:47.547Z,4.90
2022-08-22T22:46:49.318Z,5.70
2022-08-22T22:51:51.121Z,8.50
2022-08-22T22:56:53.307Z,4.90
2022-08-22T23:02:01.639Z,4.50
2022-08-22T23:07:03.703Z,4.70
2022-08-22T23:12:06.225Z,3.90
2022-08-22T23:17:07.991Z,3.80
2022-08-22T23:22:09.793Z,3.70
2022-08-22T23:27:11.760Z,4.00
2022-08-22T23:32:13.884Z,3.30
2022-08-22T23:37:17.245Z,5.90
2022-08-22T23:42:19.045Z,4.10
2022-08-22T23:47:20.821Z,5.20
2022-08-22T23:52:22.537Z,5.60
2022-08-22T23:57:26.506Z,5.90
